sensor_id;sensor_type;location;lat;lon;timestamp;P1;durP1;ratioP1;P2;durP2;ratioP2
18280;SDS011;9266;51.132;17.062;2022-10-16T00:01:36;17.13;;;12.97;;
18280;SDS011;9266;51.132;17.062;2022-10-16T00:04:04;14.70;;;12.07;;
18280;SDS011;9266;51.132;17.062;2022-10-16T00:06:32;17.47;;;12.30;;
18280;SDS011;9266;51.132;17.062;2022-10-16T00:09:00;13.60;;;11.97;;
18280;SDS011;9266;51.132;17.062;2022-10-16T00:11:29;15.13;;;12.60;;
18280;SDS011;9266;51.132;17.062;2022-10-16T00:13:58;21.80;;;11.87;;
18280;SDS011;9266;51.132;17.062;2022-10-16T00:16:26;16.37;;;12.30;;
18280;SDS011;9266;51.132;17.062;2022-10-16T00:18:54;14.70;;;11.67;;
18280;SDS011;9266;51.132;17.062;2022-10-16T00:21:22;17.37;;;11.47;;
18280;SDS011;9266;51.132;17.062;2022-10-16T00:23:50;14.90;;;11.07;;
18280;SDS011;9266;51.132;17.062;2022-10-16T00:26:19;14.67;;;10.63;;
18280;SDS011;9266;51.132;17.062;2022-10-16T00:28:46;14.20;;;11.27;;
18280;SDS011;9266;51.132;17.062;2022-10-16T00:31:14;11.73;;;9.83;;
18280;SDS011;9266;51.132;17.062;2022-10-16T00:33:41;12.67;;;10.90;;
18280;SDS011;9266;51.132;17.062;2022-10-16T00:36:09;14.33;;;10.87;;
18280;SDS011;9266;51.132;17.062;2022-10-16T00:38:37;11.30;;;10.10;;
18280;SDS011;9266;51.132;17.062;2022-10-16T00:41:04;10.73;;;9.57;;
18280;SDS011;9266;51.132;17.062;2022-10-16T00:43:34;12.97;;;10.70;;
18280;SDS011;9266;51.132;17.062;2022-10-16T00:46:02;11.87;;;10.07;;
18280;SDS011;9266;51.132;17.062;2022-10-16T00:48:29;11.07;;;9.80;;
18280;SDS011;9266;51.132;17.062;2022-10-16T00:50:57;9.87;;;8.73;;
18280;SDS011;9266;51.132;17.062;2022-10-16T00:53:25;11.93;;;10.07;;
18280;SDS011;9266;51.132;17.062;2022-10-16T00:55:52;10.97;;;8.80;;
18280;SDS011;9266;51.132;17.062;2022-10-16T00:58:19;11.97;;;9.57;;
18280;SDS011;9266;51.132;17.062;2022-10-16T01:00:48;9.30;;;8.40;;
18280;SDS011;9266;51.132;17.062;2022-10-16T01:03:23;10.10;;;9.00;;
18280;SDS011;9266;51.132;17.062;2022-10-16T01:05:51;8.67;;;7.77;;
18280;SDS011;9266;51.132;17.062;2022-10-16T01:08:22;10.40;;;8.47;;
18280;SDS011;9266;51.132;17.062;2022-10-16T01:10:54;9.17;;;7.70;;
18280;SDS011;9266;51.132;17.062;2022-10-16T01:13:24;8.90;;;7.60;;
18280;SDS011;9266;51.132;17.062;2022-10-16T01:15:54;9.60;;;7.73;;
18280;SDS011;9266;51.132;17.062;2022-10-16T01:18:24;7.90;;;7.10;;
18280;SDS011;9266;51.132;17.062;2022-10-16T01:20:57;8.50;;;7.67;;
18280;SDS011;9266;51.132;17.062;2022-10-16T01:23:31;8.30;;;7.17;;
18280;SDS011;9266;51.132;17.062;2022-10-16T01:26:13;9.40;;;7.63;;
18280;SDS011;9266;51.132;17.062;2022-10-16T01:28:44;8.73;;;7.10;;
18280;SDS011;9266;51.132;17.062;2022-10-16T01:31:15;7.80;;;7.00;;
18280;SDS011;9266;51.132;17.062;2022-10-16T01:33:44;9.13;;;6.97;;
18280;SDS011;9266;51.132;17.062;2022-10-16T01:36:13;9.60;;;7.03;;
18280;SDS011;9266;51.132;17.062;2022-10-16T01:38:43;8.20;;;7.37;;
18280;SDS011;9266;51.132;17.062;2022-10-16T01:41:13;9.17;;;7.70;;
18280;SDS011;9266;51.132;17.062;2022-10-16T01:43:46;7.63;;;6.93;;
18280;SDS011;9266;51.132;17.062;2022-10-16T01:46:16;8.97;;;7.37;;
18280;SDS011;9266;51.132;17.062;2022-10-16T01:48:45;10.10;;;7.80;;
18280;SDS011;9266;51.132;17.062;2022-10-16T01:51:13;8.60;;;7.70;;
18280;SDS011;9266;51.132;17.062;2022-10-16T01:53:43;9.40;;;8.07;;
18280;SDS011;9266;51.132;17.062;2022-10-16T01:56:14;12.03;;;8.13;;
18280;SDS011;9266;51.132;17.062;2022-10-16T01:58:44;9.00;;;8.00;;
18280;SDS011;9266;51.132;17.062;2022-10-16T02:01:15;12.50;;;8.53;;
18280;SDS011;9266;51.132;17.062;2022-10-16T02:03:45;10.60;;;9.40;;
18280;SDS011;9266;51.132;17.062;2022-10-16T02:06:15;9.90;;;8.57;;
18280;SDS011;9266;51.132;17.062;2022-10-16T02:08:42;10.87;;;8.97;;
18280;SDS011;9266;51.132;17.062;2022-10-16T02:11:10;9.07;;;8.10;;
18280;SDS011;9266;51.132;17.062;2022-10-16T02:13:39;9.53;;;8.40;;
18280;SDS011;9266;51.132;17.062;2022-10-16T02:16:10;9.63;;;8.30;;
18280;SDS011;9266;51.132;17.062;2022-10-16T02:18:40;8.83;;;7.43;;
18280;SDS011;9266;51.132;17.062;2022-10-16T02:21:10;13.67;;;9.17;;
18280;SDS011;9266;51.132;17.062;2022-10-16T02:23:45;9.27;;;8.07;;
18280;SDS011;9266;51.132;17.062;2022-10-16T02:26:20;9.37;;;8.33;;
18280;SDS011;9266;51.132;17.062;2022-10-16T02:28:55;12.00;;;8.97;;
18280;SDS011;9266;51.132;17.062;2022-10-16T02:31:27;11.33;;;8.37;;
18280;SDS011;9266;51.132;17.062;2022-10-16T02:33:58;10.13;;;8.80;;
18280;SDS011;9266;51.132;17.062;2022-10-16T02:36:26;9.33;;;8.37;;
18280;SDS011;9266;51.132;17.062;2022-10-16T02:38:54;10.40;;;8.30;;
18280;SDS011;9266;51.132;17.062;2022-10-16T02:41:21;10.03;;;8.73;;
18280;SDS011;9266;51.132;17.062;2022-10-16T02:43:49;12.10;;;8.90;;
18280;SDS011;9266;51.132;17.062;2022-10-16T02:46:17;11.87;;;8.73;;
18280;SDS011;9266;51.132;17.062;2022-10-16T02:48:45;11.07;;;8.93;;
18280;SDS011;9266;51.132;17.062;2022-10-16T02:51:13;11.33;;;9.67;;
18280;SDS011;9266;51.132;17.062;2022-10-16T02:53:40;11.60;;;10.50;;
18280;SDS011;9266;51.132;17.062;2022-10-16T02:56:07;11.10;;;9.70;;
18280;SDS011;9266;51.132;17.062;2022-10-16T02:58:34;11.37;;;9.70;;
18280;SDS011;9266;51.132;17.062;2022-10-16T03:01:02;11.87;;;9.53;;
18280;SDS011;9266;51.132;17.062;2022-10-16T03:03:29;13.33;;;9.70;;
18280;SDS011;9266;51.132;17.062;2022-10-16T03:05:56;12.03;;;8.33;;
18280;SDS011;9266;51.132;17.062;2022-10-16T03:08:25;12.03;;;9.83;;
18280;SDS011;9266;51.132;17.062;2022-10-16T03:10:52;12.43;;;10.00;;
18280;SDS011;9266;51.132;17.062;2022-10-16T03:13:20;11.57;;;9.80;;
18280;SDS011;9266;51.132;17.062;2022-10-16T03:15:47;11.33;;;10.13;;
18280;SDS011;9266;51.132;17.062;2022-10-16T03:18:15;11.43;;;9.70;;
18280;SDS011;9266;51.132;17.062;2022-10-16T03:20:42;11.43;;;9.30;;
18280;SDS011;9266;51.132;17.062;2022-10-16T03:23:09;9.70;;;8.70;;
18280;SDS011;9266;51.132;17.062;2022-10-16T03:25:38;11.13;;;9.43;;
18280;SDS011;9266;51.132;17.062;2022-10-16T03:28:06;10.07;;;8.63;;
18280;SDS011;9266;51.132;17.062;2022-10-16T03:30:33;10.90;;;9.30;;
18280;SDS011;9266;51.132;17.062;2022-10-16T03:33:00;11.57;;;8.77;;
18280;SDS011;9266;51.132;17.062;2022-10-16T03:35:28;12.17;;;9.53;;
18280;SDS011;9266;51.132;17.062;2022-10-16T03:37:55;12.77;;;10.00;;
18280;SDS011;9266;51.132;17.062;2022-10-16T03:40:22;11.83;;;10.37;;
18280;SDS011;9266;51.132;17.062;2022-10-16T03:42:51;10.70;;;9.60;;
18280;SDS011;9266;51.132;17.062;2022-10-16T03:45:20;13.30;;;9.73;;
18280;SDS011;9266;51.132;17.062;2022-10-16T03:47:47;11.10;;;9.90;;
18280;SDS011;9266;51.132;17.062;2022-10-16T03:50:14;12.13;;;10.57;;
18280;SDS011;9266;51.132;17.062;2022-10-16T03:52:41;12.80;;;10.63;;
18280;SDS011;9266;51.132;17.062;2022-10-16T03:55:09;13.27;;;10.70;;
18280;SDS011;9266;51.132;17.062;2022-10-16T03:57:36;12.90;;;11.27;;
18280;SDS011;9266;51.132;17.062;2022-10-16T04:00:05;13.93;;;11.03;;
18280;SDS011;9266;51.132;17.062;2022-10-16T04:02:33;12.87;;;11.13;;
18280;SDS011;9266;51.132;17.062;2022-10-16T04:05:00;14.43;;;11.30;;
18280;SDS011;9266;51.132;17.062;2022-10-16T04:07:27;15.10;;;11.90;;
18280;SDS011;9266;51.132;17.062;2022-10-16T04:09:55;15.27;;;11.80;;
18280;SDS011;9266;51.132;17.062;2022-10-16T04:12:24;14.63;;;11.87;;
18280;SDS011;9266;51.132;17.062;2022-10-16T04:14:51;14.70;;;12.57;;
18280;SDS011;9266;51.132;17.062;2022-10-16T04:17:20;14.93;;;11.47;;
18280;SDS011;9266;51.132;17.062;2022-10-16T04:19:47;14.33;;;10.73;;
18280;SDS011;9266;51.132;17.062;2022-10-16T04:22:14;13.23;;;10.67;;
18280;SDS011;9266;51.132;17.062;2022-10-16T04:24:41;13.17;;;11.13;;
18280;SDS011;9266;51.132;17.062;2022-10-16T04:27:08;12.90;;;10.33;;
18280;SDS011;9266;51.132;17.062;2022-10-16T04:29:36;13.10;;;11.20;;
18280;SDS011;9266;51.132;17.062;2022-10-16T04:32:03;12.27;;;10.90;;
18280;SDS011;9266;51.132;17.062;2022-10-16T04:34:32;12.47;;;11.10;;
18280;SDS011;9266;51.132;17.062;2022-10-16T04:36:59;13.67;;;10.27;;
18280;SDS011;9266;51.132;17.062;2022-10-16T04:39:26;12.90;;;10.37;;
18280;SDS011;9266;51.132;17.062;2022-10-16T04:41:54;12.10;;;10.13;;
18280;SDS011;9266;51.132;17.062;2022-10-16T04:44:21;12.40;;;10.37;;
18280;SDS011;9266;51.132;17.062;2022-10-16T04:46:49;12.53;;;10.40;;
18280;SDS011;9266;51.132;17.062;2022-10-16T04:49:17;12.33;;;10.13;;
18280;SDS011;9266;51.132;17.062;2022-10-16T04:51:46;12.43;;;10.67;;
18280;SDS011;9266;51.132;17.062;2022-10-16T04:54:13;12.80;;;10.17;;
18280;SDS011;9266;51.132;17.062;2022-10-16T04:56:40;13.03;;;9.57;;
18280;SDS011;9266;51.132;17.062;2022-10-16T04:59:12;16.13;;;10.47;;
18280;SDS011;9266;51.132;17.062;2022-10-16T05:01:39;12.17;;;10.40;;
18280;SDS011;9266;51.132;17.062;2022-10-16T05:04:07;11.33;;;10.10;;
18280;SDS011;9266;51.132;17.062;2022-10-16T05:06:34;11.17;;;9.70;;
18280;SDS011;9266;51.132;17.062;2022-10-16T05:09:03;13.67;;;11.17;;
18280;SDS011;9266;51.132;17.062;2022-10-16T05:11:30;12.10;;;10.80;;
18280;SDS011;9266;51.132;17.062;2022-10-16T05:13:57;11.73;;;10.03;;
18280;SDS011;9266;51.132;17.062;2022-10-16T05:16:24;12.30;;;10.03;;
18280;SDS011;9266;51.132;17.062;2022-10-16T05:18:52;11.57;;;9.67;;
18280;SDS011;9266;51.132;17.062;2022-10-16T05:21:20;10.53;;;9.27;;
18280;SDS011;9266;51.132;17.062;2022-10-16T05:23:47;11.40;;;9.50;;
18280;SDS011;9266;51.132;17.062;2022-10-16T05:26:16;10.23;;;8.57;;
18280;SDS011;9266;51.132;17.062;2022-10-16T05:28:43;10.67;;;9.33;;
18280;SDS011;9266;51.132;17.062;2022-10-16T05:31:11;13.73;;;10.03;;
18280;SDS011;9266;51.132;17.062;2022-10-16T05:33:38;12.23;;;10.13;;
18280;SDS011;9266;51.132;17.062;2022-10-16T05:36:06;10.90;;;9.20;;
18280;SDS011;9266;51.132;17.062;2022-10-16T05:38:34;11.80;;;8.93;;
18280;SDS011;9266;51.132;17.062;2022-10-16T05:41:01;14.43;;;10.00;;
18280;SDS011;9266;51.132;17.062;2022-10-16T05:43:30;10.33;;;9.10;;
18280;SDS011;9266;51.132;17.062;2022-10-16T05:45:58;17.33;;;11.20;;
18280;SDS011;9266;51.132;17.062;2022-10-16T05:48:26;11.23;;;9.60;;
18280;SDS011;9266;51.132;17.062;2022-10-16T05:50:57;12.93;;;10.17;;
18280;SDS011;9266;51.132;17.062;2022-10-16T05:53:24;12.10;;;9.47;;
18280;SDS011;9266;51.132;17.062;2022-10-16T05:55:52;13.33;;;9.57;;
18280;SDS011;9266;51.132;17.062;2022-10-16T05:58:19;10.97;;;9.23;;
18280;SDS011;9266;51.132;17.062;2022-10-16T06:00:53;11.43;;;9.60;;
18280;SDS011;9266;51.132;17.062;2022-10-16T06:03:21;11.13;;;9.50;;
18280;SDS011;9266;51.132;17.062;2022-10-16T06:05:48;12.43;;;9.37;;
18280;SDS011;9266;51.132;17.062;2022-10-16T06:08:16;12.47;;;9.90;;
18280;SDS011;9266;51.132;17.062;2022-10-16T06:10:43;13.93;;;9.77;;
18280;SDS011;9266;51.132;17.062;2022-10-16T06:13:10;12.17;;;10.17;;
18280;SDS011;9266;51.132;17.062;2022-10-16T06:15:38;20.67;;;11.10;;
18280;SDS011;9266;51.132;17.062;2022-10-16T06:18:08;14.50;;;11.10;;
18280;SDS011;9266;51.132;17.062;2022-10-16T06:20:35;11.20;;;9.00;;
18280;SDS011;9266;51.132;17.062;2022-10-16T06:23:02;10.07;;;8.20;;
18280;SDS011;9266;51.132;17.062;2022-10-16T06:25:30;10.73;;;9.37;;
18280;SDS011;9266;51.132;17.062;2022-10-16T06:27:57;11.33;;;9.00;;
18280;SDS011;9266;51.132;17.062;2022-10-16T06:30:25;9.80;;;8.80;;
18280;SDS011;9266;51.132;17.062;2022-10-16T06:32:52;12.30;;;9.20;;
18280;SDS011;9266;51.132;17.062;2022-10-16T06:35:21;9.03;;;8.07;;
18280;SDS011;9266;51.132;17.062;2022-10-16T06:37:49;13.67;;;9.00;;
18280;SDS011;9266;51.132;17.062;2022-10-16T06:40:16;9.90;;;8.80;;
18280;SDS011;9266;51.132;17.062;2022-10-16T06:42:43;9.13;;;8.20;;
18280;SDS011;9266;51.132;17.062;2022-10-16T06:45:17;9.83;;;7.93;;
18280;SDS011;9266;51.132;17.062;2022-10-16T06:47:45;10.70;;;7.93;;
18280;SDS011;9266;51.132;17.062;2022-10-16T06:50:12;9.70;;;8.03;;
18280;SDS011;9266;51.132;17.062;2022-10-16T06:52:41;9.80;;;8.67;;
18280;SDS011;9266;51.132;17.062;2022-10-16T06:55:08;12.23;;;8.27;;
18280;SDS011;9266;51.132;17.062;2022-10-16T06:57:35;10.03;;;8.17;;
18280;SDS011;9266;51.132;17.062;2022-10-16T07:00:03;10.47;;;8.20;;
18280;SDS011;9266;51.132;17.062;2022-10-16T07:02:30;11.23;;;8.10;;
18280;SDS011;9266;51.132;17.062;2022-10-16T07:04:57;13.00;;;8.40;;
18280;SDS011;9266;51.132;17.062;2022-10-16T07:07:25;10.07;;;7.47;;
18280;SDS011;9266;51.132;17.062;2022-10-16T07:09:53;8.93;;;7.80;;
18280;SDS011;9266;51.132;17.062;2022-10-16T07:12:20;9.87;;;7.70;;
18280;SDS011;9266;51.132;17.062;2022-10-16T07:14:48;10.50;;;7.40;;
18280;SDS011;9266;51.132;17.062;2022-10-16T07:17:17;9.07;;;7.20;;
18280;SDS011;9266;51.132;17.062;2022-10-16T07:19:44;8.50;;;6.50;;
18280;SDS011;9266;51.132;17.062;2022-10-16T07:22:12;7.57;;;6.83;;
18280;SDS011;9266;51.132;17.062;2022-10-16T07:24:39;12.03;;;7.60;;
18280;SDS011;9266;51.132;17.062;2022-10-16T07:27:08;9.93;;;7.20;;
18280;SDS011;9266;51.132;17.062;2022-10-16T07:29:35;8.53;;;7.17;;
18280;SDS011;9266;51.132;17.062;2022-10-16T07:32:02;16.23;;;10.00;;
18280;SDS011;9266;51.132;17.062;2022-10-16T07:34:30;9.53;;;7.10;;
18280;SDS011;9266;51.132;17.062;2022-10-16T07:36:57;8.00;;;6.97;;
18280;SDS011;9266;51.132;17.062;2022-10-16T07:39:24;6.63;;;5.93;;
18280;SDS011;9266;51.132;17.062;2022-10-16T07:41:51;8.50;;;6.37;;
18280;SDS011;9266;51.132;17.062;2022-10-16T07:44:20;8.37;;;7.00;;
18280;SDS011;9266;51.132;17.062;2022-10-16T07:46:47;9.40;;;6.90;;
18280;SDS011;9266;51.132;17.062;2022-10-16T07:49:14;7.63;;;6.43;;
18280;SDS011;9266;51.132;17.062;2022-10-16T07:51:41;8.77;;;5.97;;
18280;SDS011;9266;51.132;17.062;2022-10-16T07:54:09;6.50;;;5.73;;
18280;SDS011;9266;51.132;17.062;2022-10-16T07:56:36;7.23;;;5.63;;
18280;SDS011;9266;51.132;17.062;2022-10-16T07:59:04;10.50;;;6.30;;
18280;SDS011;9266;51.132;17.062;2022-10-16T08:01:32;7.90;;;6.30;;
18280;SDS011;9266;51.132;17.062;2022-10-16T08:03:59;12.00;;;6.90;;
18280;SDS011;9266;51.132;17.062;2022-10-16T08:06:27;10.10;;;7.00;;
18280;SDS011;9266;51.132;17.062;2022-10-16T08:08:54;7.10;;;5.97;;
18280;SDS011;9266;51.132;17.062;2022-10-16T08:11:22;9.90;;;6.47;;
18280;SDS011;9266;51.132;17.062;2022-10-16T08:13:49;5.23;;;4.70;;
18280;SDS011;9266;51.132;17.062;2022-10-16T08:16:16;5.07;;;4.40;;
18280;SDS011;9266;51.132;17.062;2022-10-16T08:18:45;7.90;;;5.30;;
18280;SDS011;9266;51.132;17.062;2022-10-16T08:21:13;11.53;;;6.60;;
18280;SDS011;9266;51.132;17.062;2022-10-16T08:23:41;7.00;;;5.07;;
18280;SDS011;9266;51.132;17.062;2022-10-16T08:26:09;6.10;;;4.90;;
18280;SDS011;9266;51.132;17.062;2022-10-16T08:28:36;6.20;;;4.50;;
18280;SDS011;9266;51.132;17.062;2022-10-16T08:31:04;6.03;;;4.53;;
18280;SDS011;9266;51.132;17.062;2022-10-16T08:33:32;5.63;;;4.40;;
18280;SDS011;9266;51.132;17.062;2022-10-16T08:36:01;6.43;;;5.00;;
18280;SDS011;9266;51.132;17.062;2022-10-16T08:38:29;8.10;;;4.77;;
18280;SDS011;9266;51.132;17.062;2022-10-16T08:40:58;9.73;;;6.47;;
18280;SDS011;9266;51.132;17.062;2022-10-16T08:43:32;8.07;;;5.33;;
18280;SDS011;9266;51.132;17.062;2022-10-16T08:46:09;7.37;;;4.97;;
18280;SDS011;9266;51.132;17.062;2022-10-16T08:48:43;8.60;;;6.10;;
18280;SDS011;9266;51.132;17.062;2022-10-16T08:51:14;5.90;;;4.67;;
18280;SDS011;9266;51.132;17.062;2022-10-16T08:53:46;6.23;;;5.27;;
18280;SDS011;9266;51.132;17.062;2022-10-16T08:56:15;7.70;;;4.90;;
18280;SDS011;9266;51.132;17.062;2022-10-16T08:58:44;8.20;;;5.80;;
18280;SDS011;9266;51.132;17.062;2022-10-16T09:01:13;5.07;;;4.47;;
18280;SDS011;9266;51.132;17.062;2022-10-16T09:03:45;6.90;;;4.83;;
18280;SDS011;9266;51.132;17.062;2022-10-16T09:06:24;4.57;;;4.10;;
18280;SDS011;9266;51.132;17.062;2022-10-16T09:08:57;7.97;;;5.30;;
18280;SDS011;9266;51.132;17.062;2022-10-16T09:11:32;6.17;;;4.67;;
18280;SDS011;9266;51.132;17.062;2022-10-16T09:14:04;6.47;;;4.70;;
18280;SDS011;9266;51.132;17.062;2022-10-16T09:16:34;7.13;;;4.83;;
18280;SDS011;9266;51.132;17.062;2022-10-16T09:19:04;6.40;;;4.00;;
18280;SDS011;9266;51.132;17.062;2022-10-16T09:21:37;5.93;;;5.17;;
18280;SDS011;9266;51.132;17.062;2022-10-16T09:24:09;5.77;;;4.53;;
18280;SDS011;9266;51.132;17.062;2022-10-16T09:26:38;5.30;;;4.10;;
18280;SDS011;9266;51.132;17.062;2022-10-16T09:29:06;7.37;;;4.43;;
18280;SDS011;9266;51.132;17.062;2022-10-16T09:31:33;5.67;;;3.93;;
18280;SDS011;9266;51.132;17.062;2022-10-16T09:34:03;6.77;;;4.27;;
18280;SDS011;9266;51.132;17.062;2022-10-16T09:36:32;6.60;;;4.53;;
18280;SDS011;9266;51.132;17.062;2022-10-16T09:39:05;8.30;;;5.53;;
18280;SDS011;9266;51.132;17.062;2022-10-16T09:41:34;6.00;;;5.10;;
18280;SDS011;9266;51.132;17.062;2022-10-16T09:44:02;5.77;;;4.70;;
18280;SDS011;9266;51.132;17.062;2022-10-16T09:46:30;7.70;;;4.67;;
18280;SDS011;9266;51.132;17.062;2022-10-16T09:48:59;6.30;;;5.10;;
18280;SDS011;9266;51.132;17.062;2022-10-16T09:51:27;6.80;;;4.57;;
18280;SDS011;9266;51.132;17.062;2022-10-16T09:53:55;6.03;;;4.60;;
18280;SDS011;9266;51.132;17.062;2022-10-16T09:56:25;6.60;;;5.13;;
18280;SDS011;9266;51.132;17.062;2022-10-16T09:58:53;11.10;;;5.30;;
18280;SDS011;9266;51.132;17.062;2022-10-16T10:01:21;6.53;;;4.53;;
18280;SDS011;9266;51.132;17.062;2022-10-16T10:03:50;5.80;;;4.77;;
18280;SDS011;9266;51.132;17.062;2022-10-16T10:06:24;11.27;;;5.93;;
18280;SDS011;9266;51.132;17.062;2022-10-16T10:08:53;6.23;;;4.47;;
18280;SDS011;9266;51.132;17.062;2022-10-16T10:14:08;3.90;;;3.50;;
18280;SDS011;9266;51.132;17.062;2022-10-16T10:16:40;5.23;;;3.83;;
18280;SDS011;9266;51.132;17.062;2022-10-16T10:19:09;4.70;;;3.50;;
18280;SDS011;9266;51.132;17.062;2022-10-16T10:21:39;5.37;;;3.77;;
18280;SDS011;9266;51.132;17.062;2022-10-16T10:24:09;4.87;;;3.80;;
18280;SDS011;9266;51.132;17.062;2022-10-16T10:26:37;4.60;;;3.67;;
18280;SDS011;9266;51.132;17.062;2022-10-16T10:29:05;5.80;;;3.57;;
18280;SDS011;9266;51.132;17.062;2022-10-16T10:31:36;6.47;;;4.00;;
18280;SDS011;9266;51.132;17.062;2022-10-16T10:34:11;4.00;;;3.60;;
18280;SDS011;9266;51.132;17.062;2022-10-16T10:36:43;4.10;;;3.60;;
18280;SDS011;9266;51.132;17.062;2022-10-16T10:39:15;3.47;;;3.07;;
18280;SDS011;9266;51.132;17.062;2022-10-16T10:41:55;6.47;;;3.97;;
18280;SDS011;9266;51.132;17.062;2022-10-16T10:44:26;4.13;;;3.50;;
18280;SDS011;9266;51.132;17.062;2022-10-16T10:46:57;4.43;;;3.50;;
18280;SDS011;9266;51.132;17.062;2022-10-16T10:49:31;6.83;;;3.90;;
18280;SDS011;9266;51.132;17.062;2022-10-16T10:52:02;4.27;;;3.40;;
18280;SDS011;9266;51.132;17.062;2022-10-16T10:54:35;3.87;;;3.47;;
18280;SDS011;9266;51.132;17.062;2022-10-16T10:57:08;3.67;;;3.10;;
18280;SDS011;9266;51.132;17.062;2022-10-16T10:59:46;5.37;;;3.40;;
18280;SDS011;9266;51.132;17.062;2022-10-16T11:02:21;3.60;;;3.30;;
18280;SDS011;9266;51.132;17.062;2022-10-16T11:05:00;3.80;;;3.33;;
18280;SDS011;9266;51.132;17.062;2022-10-16T11:07:30;4.80;;;3.17;;
18280;SDS011;9266;51.132;17.062;2022-10-16T11:10:02;3.50;;;3.20;;
18280;SDS011;9266;51.132;17.062;2022-10-16T11:12:31;3.60;;;3.03;;
18280;SDS011;9266;51.132;17.062;2022-10-16T11:15:02;6.07;;;3.77;;
18280;SDS011;9266;51.132;17.062;2022-10-16T11:17:32;5.10;;;2.70;;
18280;SDS011;9266;51.132;17.062;2022-10-16T11:20:02;3.20;;;2.90;;
18280;SDS011;9266;51.132;17.062;2022-10-16T11:22:33;2.93;;;2.70;;
18280;SDS011;9266;51.132;17.062;2022-10-16T11:25:02;4.87;;;3.87;;
18280;SDS011;9266;51.132;17.062;2022-10-16T11:27:35;5.63;;;3.80;;
18280;SDS011;9266;51.132;17.062;2022-10-16T11:30:04;4.67;;;3.63;;
18280;SDS011;9266;51.132;17.062;2022-10-16T11:32:35;4.27;;;3.87;;
18280;SDS011;9266;51.132;17.062;2022-10-16T11:35:08;4.30;;;3.30;;
18280;SDS011;9266;51.132;17.062;2022-10-16T11:37:40;3.87;;;3.10;;
18280;SDS011;9266;51.132;17.062;2022-10-16T11:40:14;4.50;;;3.10;;
18280;SDS011;9266;51.132;17.062;2022-10-16T11:42:44;4.37;;;3.60;;
18280;SDS011;9266;51.132;17.062;2022-10-16T11:45:16;5.33;;;3.83;;
18280;SDS011;9266;51.132;17.062;2022-10-16T11:47:54;4.33;;;3.10;;
18280;SDS011;9266;51.132;17.062;2022-10-16T11:50:28;5.00;;;3.43;;
18280;SDS011;9266;51.132;17.062;2022-10-16T11:52:57;5.33;;;3.40;;
18280;SDS011;9266;51.132;17.062;2022-10-16T11:55:29;5.93;;;3.67;;
18280;SDS011;9266;51.132;17.062;2022-10-16T11:57:59;5.40;;;3.47;;
18280;SDS011;9266;51.132;17.062;2022-10-16T12:00:30;4.40;;;3.53;;
18280;SDS011;9266;51.132;17.062;2022-10-16T12:03:02;6.97;;;4.60;;
18280;SDS011;9266;51.132;17.062;2022-10-16T12:05:34;4.70;;;3.60;;
18280;SDS011;9266;51.132;17.062;2022-10-16T12:08:07;4.53;;;3.60;;
18280;SDS011;9266;51.132;17.062;2022-10-16T12:10:36;5.93;;;4.27;;
18280;SDS011;9266;51.132;17.062;2022-10-16T12:13:04;5.07;;;4.27;;
18280;SDS011;9266;51.132;17.062;2022-10-16T12:15:32;4.40;;;4.00;;
18280;SDS011;9266;51.132;17.062;2022-10-16T12:18:01;5.33;;;4.27;;
18280;SDS011;9266;51.132;17.062;2022-10-16T12:20:28;5.57;;;4.07;;
18280;SDS011;9266;51.132;17.062;2022-10-16T12:22:58;7.17;;;4.87;;
18280;SDS011;9266;51.132;17.062;2022-10-16T12:25:26;4.77;;;4.37;;
18280;SDS011;9266;51.132;17.062;2022-10-16T12:27:59;6.13;;;4.10;;
18280;SDS011;9266;51.132;17.062;2022-10-16T12:30:27;6.90;;;4.40;;
18280;SDS011;9266;51.132;17.062;2022-10-16T12:32:55;4.93;;;3.70;;
18280;SDS011;9266;51.132;17.062;2022-10-16T12:35:25;5.87;;;4.47;;
18280;SDS011;9266;51.132;17.062;2022-10-16T12:37:53;5.13;;;4.17;;
18280;SDS011;9266;51.132;17.062;2022-10-16T12:40:25;5.00;;;3.87;;
18280;SDS011;9266;51.132;17.062;2022-10-16T12:42:53;4.30;;;3.90;;
18280;SDS011;9266;51.132;17.062;2022-10-16T12:45:25;5.40;;;4.17;;
18280;SDS011;9266;51.132;17.062;2022-10-16T12:47:53;4.90;;;4.23;;
18280;SDS011;9266;51.132;17.062;2022-10-16T12:50:27;6.27;;;4.80;;
18280;SDS011;9266;51.132;17.062;2022-10-16T12:52:55;5.73;;;4.60;;
18280;SDS011;9266;51.132;17.062;2022-10-16T12:55:23;6.30;;;5.23;;
18280;SDS011;9266;51.132;17.062;2022-10-16T13:00:36;9.30;;;5.90;;
18280;SDS011;9266;51.132;17.062;2022-10-16T13:05:53;6.97;;;6.13;;
18280;SDS011;9266;51.132;17.062;2022-10-16T13:08:27;8.43;;;5.83;;
18280;SDS011;9266;51.132;17.062;2022-10-16T13:11:01;8.43;;;7.07;;
18280;SDS011;9266;51.132;17.062;2022-10-16T13:13:37;7.30;;;6.10;;
18280;SDS011;9266;51.132;17.062;2022-10-16T13:16:10;7.43;;;6.27;;
18280;SDS011;9266;51.132;17.062;2022-10-16T13:18:43;7.33;;;5.80;;
18280;SDS011;9266;51.132;17.062;2022-10-16T13:21:20;7.43;;;6.37;;
18280;SDS011;9266;51.132;17.062;2022-10-16T13:23:54;10.50;;;6.90;;
18280;SDS011;9266;51.132;17.062;2022-10-16T13:26:26;10.37;;;7.50;;
18280;SDS011;9266;51.132;17.062;2022-10-16T13:28:58;9.57;;;6.90;;
18280;SDS011;9266;51.132;17.062;2022-10-16T13:31:26;7.90;;;6.83;;
18280;SDS011;9266;51.132;17.062;2022-10-16T13:33:55;7.17;;;6.47;;
18280;SDS011;9266;51.132;17.062;2022-10-16T13:36:26;7.27;;;5.90;;
18280;SDS011;9266;51.132;17.062;2022-10-16T13:39:00;8.93;;;5.70;;
18280;SDS011;9266;51.132;17.062;2022-10-16T13:41:27;8.03;;;6.13;;
18280;SDS011;9266;51.132;17.062;2022-10-16T13:43:55;6.97;;;5.73;;
18280;SDS011;9266;51.132;17.062;2022-10-16T13:46:24;9.10;;;6.50;;
18280;SDS011;9266;51.132;17.062;2022-10-16T13:49:01;8.23;;;6.10;;
18280;SDS011;9266;51.132;17.062;2022-10-16T13:51:31;8.00;;;6.50;;
18280;SDS011;9266;51.132;17.062;2022-10-16T13:53:59;8.50;;;6.60;;
18280;SDS011;9266;51.132;17.062;2022-10-16T13:56:27;7.37;;;6.33;;
18280;SDS011;9266;51.132;17.062;2022-10-16T13:58:58;8.07;;;6.10;;
18280;SDS011;9266;51.132;17.062;2022-10-16T14:01:26;6.37;;;5.70;;
18280;SDS011;9266;51.132;17.062;2022-10-16T14:03:59;8.93;;;7.40;;
18280;SDS011;9266;51.132;17.062;2022-10-16T14:06:28;5.77;;;5.20;;
18280;SDS011;9266;51.132;17.062;2022-10-16T14:08:58;5.60;;;4.37;;
18280;SDS011;9266;51.132;17.062;2022-10-16T14:11:27;6.30;;;5.10;;
18280;SDS011;9266;51.132;17.062;2022-10-16T14:13:55;6.33;;;5.23;;
18280;SDS011;9266;51.132;17.062;2022-10-16T14:16:24;8.13;;;4.90;;
18280;SDS011;9266;51.132;17.062;2022-10-16T14:18:55;6.60;;;6.00;;
18280;SDS011;9266;51.132;17.062;2022-10-16T14:21:23;5.67;;;5.07;;
18280;SDS011;9266;51.132;17.062;2022-10-16T14:23:51;5.67;;;4.90;;
18280;SDS011;9266;51.132;17.062;2022-10-16T14:26:20;8.37;;;5.17;;
18280;SDS011;9266;51.132;17.062;2022-10-16T14:29:00;5.90;;;5.23;;
18280;SDS011;9266;51.132;17.062;2022-10-16T14:31:29;5.63;;;5.10;;
18280;SDS011;9266;51.132;17.062;2022-10-16T14:33:56;5.63;;;4.90;;
18280;SDS011;9266;51.132;17.062;2022-10-16T14:36:24;7.80;;;5.50;;
18280;SDS011;9266;51.132;17.062;2022-10-16T14:38:57;5.17;;;4.63;;
18280;SDS011;9266;51.132;17.062;2022-10-16T14:41:27;6.33;;;4.67;;
18280;SDS011;9266;51.132;17.062;2022-10-16T14:43:55;7.90;;;5.00;;
18280;SDS011;9266;51.132;17.062;2022-10-16T14:46:28;6.30;;;5.70;;
18280;SDS011;9266;51.132;17.062;2022-10-16T14:49:00;6.07;;;5.47;;
18280;SDS011;9266;51.132;17.062;2022-10-16T14:51:27;6.00;;;5.40;;
18280;SDS011;9266;51.132;17.062;2022-10-16T14:53:55;7.83;;;5.47;;
18280;SDS011;9266;51.132;17.062;2022-10-16T14:56:23;5.80;;;5.00;;
18280;SDS011;9266;51.132;17.062;2022-10-16T14:58:52;8.33;;;5.73;;
18280;SDS011;9266;51.132;17.062;2022-10-16T15:01:20;6.73;;;5.90;;